Nearby METAR

 

KVTN - Valentine, Nebraska, USA
Distance from station: S 1.3mi, 2.1km
Updated: Tue, 23-Oct-2018 2:52pm CDT
Clear
Clear
 Wind from SE
Wind: SE 18 mph , 30 km/h, Gust: 25 mph , 41 km/h
Temperature: 66°F , 19°C
Dew Point: 28°F , -2°C
Humidity: 24%
Barometer: 30.25 inHg , 1024.4 hPa
Clouds: Clear
Visibility: 10 miles , 16 km
2018/10/23 19:52 KVTN 231952Z AUTO 14016G22KT 10SM CLR 19/M02 A3025 RMK AO2 SLP251 T01891017
KANW - Ainsworth, Nebraska, USA
Distance from station: SE 36mi, 57km
Updated: Tue, 23-Oct-2018 3:35pm CDT
Clear
Clear
 Wind from SSE
Wind: SSE 15 mph , 24 km/h, Gust: 18 mph , 30 km/h
Temperature: 61°F , 16°C
Dew Point: 30°F , -1°C
Humidity: 31%
Barometer: 30.26 inHg , 1024.7 hPa
Clouds: Clear
Visibility: 10 miles , 16 km
2018/10/23 20:35 KANW 232035Z AUTO 15013G16KT 10SM CLR 16/M01 A3026 RMK AO2 T01641013
 
KICR - Winner, South Dakota, USA
Distance from station: NE 50mi, 80km
Updated: Tue, 23-Oct-2018 2:53pm CDT
Clear
Clear
 Wind from SE
Wind: SE 15 mph , 24 km/h
Temperature: 63°F , 17°C
Dew Point: 30°F , -1°C
Humidity: 30%
Barometer: 30.28 inHg , 1025.4 hPa
Clouds: Clear
Visibility: 10 miles , 16 km
2018/10/23 19:53 KICR 231953Z AUTO 14013KT 10SM CLR 17/M01 A3028 RMK AO2 SLP260 T01671011
KTIF - Thedford, Nebraska, USA
Distance from station: S 63mi, 101km
Updated: Tue, 23-Oct-2018 3:35pm CDT
Clear
Clear
 Wind from SSE
Wind: SSE 12 mph , 19 km/h, Gust: 18 mph , 30 km/h
Temperature: 64°F , 18°C
Dew Point: 34°F , 1°C
Humidity: 32%
Barometer: 30.25 inHg , 1024.4 hPa
Clouds: Clear
Visibility: 10 miles , 16 km
2018/10/23 20:35 KTIF 232035Z AUTO 16010G16KT 10SM CLR 18/01 A3025 RMK AO2 T01810005
 
K9V9 - Chamberlain, South Dakota, USA
Distance from station: NE 87mi, 141km
Updated: Tue, 23-Oct-2018 3:35pm CDT
Clear
Clear
 Wind from SE
Wind: SE 14 mph , 22 km/h
Temperature: 61°F , 16°C
Dew Point: 30°F , -1°C
Humidity: 31%
Barometer: 30.29 inHg , 1025.7 hPa
Clouds: Clear
Visibility: 10 miles , 16 km
2018/10/23 20:35 K9V9 232035Z AUTO 14012KT 10SM CLR 16/M01 A3029 RMK AO2 T01601010
KIEN - Pine Ridge, South Dakota, USA
Distance from station: W 99mi, 160km
Updated: Tue, 23-Oct-2018 2:52pm CDT
Clear
Clear
 Wind from S
Wind: S 15 mph , 24 km/h
Temperature: 66°F , 19°C
Dew Point: 41°F , 5°C
Humidity: 40%
Barometer: 30.18 inHg , 1022 hPa
Clouds: Clear
Visibility: 8 miles , 13 km
2018/10/23 19:52 KIEN 231952Z AUTO 17013KT 8SM CLR 19/05 A3018 RMK AO2 SLP219 T01940050
 
KPIR - Pierre, South Dakota, USA
Distance from station: N 105mi, 169km
Updated: Tue, 23-Oct-2018 2:53pm CDT
Clear
Clear
 Wind from ESE
Wind: ESE 17 mph , 28 km/h, Gust: 28 mph , 44 km/h
Temperature: 61°F , 16°C
Dew Point: 28°F , -2°C
Humidity: 29%
Barometer: 30.27 inHg , 1025.1 hPa
Clouds: Clear
Visibility: 10 miles , 16 km
2018/10/23 19:53 KPIR 231953Z AUTO 12015G24KT 10SM CLR 16/M02 A3027 RMK AO2 SLP256 T01561022
KLBF - North Platte, Nebraska, USA
Distance from station: S 120mi, 193km
Updated: Tue, 23-Oct-2018 2:53pm CDT
Clear
Clear
 Wind from SSE
Wind: SSE 14 mph , 22 km/h, Gust: 22 mph , 35 km/h
Temperature: 66°F , 19°C
Dew Point: 37°F , 3°C
Humidity: 35%
Barometer: 30.26 inHg , 1024.7 hPa
Clouds: Clear
Visibility: 10 miles , 16 km
2018/10/23 19:53 KLBF 231953Z AUTO 15012G19KT 10SM CLR 19/03 A3026 RMK AO2 SLP246 T01890033
 
KBBW - Broken Bow Muni, Nebraska, USA
Distance from station: SSE 110mi, 177km
Updated: Tue, 23-Oct-2018 2:53pm CDT
Clear
Clear
 Wind from ESE
Wind: ESE 15 mph , 24 km/h
Temperature: 63°F , 17°C
Dew Point: 30°F , -1°C
Humidity: 30%
Barometer: 30.29 inHg , 1025.7 hPa
Clouds: Clear
Visibility: 10 miles , 16 km
2018/10/23 19:53 KBBW 231953Z AUTO 11013KT 10SM CLR 17/M01 A3029 RMK AO2 SLP259 T01671006
KRAP - Rapid City, South Dakota, USA
Distance from station: NW 149mi, 240km
Updated: Tue, 23-Oct-2018 2:52pm CDT
Clear
Clear
 Wind from SSE
Wind: SSE 23 mph , 37 km/h, Gust: 31 mph , 50 km/h
Temperature: 61°F , 16°C
Dew Point: 37°F , 3°C
Humidity: 42%
Barometer: 30.16 inHg , 1021.3 hPa
Clouds: Clear
Visibility: 10 miles , 16 km
2018/10/23 19:52 KRAP 231952Z 16020G27KT 10SM CLR 16/03 A3016 RMK AO2 PK WND 16027/1934 SLP217 T01560033